»·PEaware :: N274HM KFAT-KMRY

N274HM :: KFAT-KMRY

FLIGHT INFORMATION

Flight Status: Arrived
Operator: Privately registered:
United States
More flights under this callsign
Pilot: Steven M. (455)
Aircraft: CIRRUS SR-22 TURBO
(S22T)
More flights by this aircraft type
Origin: KFAT Fresno Yosemite Intl
United States
Destination: KMRY Monterey Peninsula
United States
More flights between these airports :: More routes between these airports
Route: +YOSE3 CZQ+ V230 SNS
File this flight plan on PilotEdge
Remarks:
Altitude:
(Current/Filed)
10,000ft
Speed:
(Current/Filed)
176kts
Departed: 04-Dec-20 03:34 PM
Arrived: 04-Dec-20 04:13 PM
Distance/Time
Traveled:
103nm/0:39
Distance/Time
To Go:
Arrived

Flight Plot

Page will automatically refresh every two minutes.

Flight plan parsing failed; only flown route is shown


Map Options




Map Legend


Flown Route
Filed Route
Departure Airport
Arrival Airport
Navaid (VOR, NDB)
Fix

Horizontal Profiles

Position Reports

Time Latitude Longitude Heading Altitude Ground
Speed
04-Dec-20 15:11 36.776362 -119.726550 306 337ft 0kts
04-Dec-20 15:12 36.776362 -119.726550 306 337ft 0kts
04-Dec-20 15:13 36.776362 -119.726550 306 337ft 0kts
04-Dec-20 15:14 36.776362 -119.726550 306 337ft 0kts
04-Dec-20 15:15 36.776362 -119.726550 306 337ft 0kts
04-Dec-20 15:16 36.776362 -119.726550 306 337ft 0kts
04-Dec-20 15:17 36.776362 -119.726550 306 337ft 0kts
04-Dec-20 15:18 36.776362 -119.726550 306 337ft 0kts
04-Dec-20 15:19 36.776362 -119.726550 306 337ft 0kts
04-Dec-20 15:20 36.776362 -119.726550 306 337ft 0kts
04-Dec-20 15:21 36.776362 -119.726550 306 337ft 0kts
04-Dec-20 15:22 36.776362 -119.726550 306 337ft 0kts
04-Dec-20 15:23 36.776391 -119.726567 357 337ft 0kts
04-Dec-20 15:24 36.776527 -119.726599 354 337ft 1kts
04-Dec-20 15:25 36.776368 -119.724916 129 337ft 10kts
04-Dec-20 15:26 36.774531 -119.721716 125 337ft 13kts
04-Dec-20 15:27 36.772931 -119.717146 122 337ft 14kts
04-Dec-20 15:28 36.770850 -119.713510 126 337ft 12kts
04-Dec-20 15:29 36.769413 -119.710446 344 337ft 0kts
04-Dec-20 15:30 36.769413 -119.710446 344 337ft 0kts
04-Dec-20 15:31 36.769414 -119.710447 344 337ft 0kts
04-Dec-20 15:32 36.769450 -119.710449 9 337ft 1kts
04-Dec-20 15:33 36.772241 -119.713504 305 338ft 70kts
04-Dec-20 15:34 36.790037 -119.743524 303 1439ft 127kts
04-Dec-20 15:35 36.800455 -119.782404 263 2922ft 126kts
04-Dec-20 15:36 36.796551 -119.826076 263 4215ft 128kts
04-Dec-20 15:37 36.792823 -119.870781 264 5413ft 131kts
04-Dec-20 15:38 36.789078 -119.916325 264 6561ft 133kts
04-Dec-20 15:39 36.785294 -119.962247 265 7686ft 134kts
04-Dec-20 15:40 36.781466 -120.008650 265 8815ft 135kts
04-Dec-20 15:41 36.777583 -120.055581 264 9885ft 140kts
04-Dec-20 15:42 36.773038 -120.111376 264 9927ft 172kts
04-Dec-20 15:43 36.768025 -120.171572 264 9926ft 175kts
04-Dec-20 15:44 36.762884 -120.232552 264 9926ft 176kts
04-Dec-20 15:45 36.757714 -120.293526 264 9981ft 173kts
04-Dec-20 15:46 36.752583 -120.353549 264 10036ft 176kts
04-Dec-20 15:47 36.747354 -120.414476 264 10036ft 177kts
04-Dec-20 15:48 36.742059 -120.475770 264 10036ft 177kts
04-Dec-20 15:49 36.736750 -120.536794 264 10036ft 177kts
04-Dec-20 15:50 36.731422 -120.597841 264 10036ft 177kts
04-Dec-20 15:51 36.725742 -120.662585 264 9177ft 198kts
04-Dec-20 15:52 36.719715 -120.730932 264 8077ft 198kts
04-Dec-20 15:53 36.714317 -120.799126 266 6970ft 196kts
04-Dec-20 15:54 36.710304 -120.865913 265 6046ft 185kts
04-Dec-20 15:55 36.706633 -120.926114 265 6036ft 173kts
04-Dec-20 15:56 36.702972 -120.986374 265 6033ft 175kts
04-Dec-20 15:57 36.699270 -121.046959 265 6024ft 176kts
04-Dec-20 15:58 36.695512 -121.107922 265 6015ft 176kts
04-Dec-20 15:59 36.691728 -121.168765 265 6005ft 175kts
04-Dec-20 16:00 36.687874 -121.230320 265 5771ft 184kts
04-Dec-20 16:01 36.683832 -121.294552 265 5273ft 187kts
04-Dec-20 16:02 36.665747 -121.353690 242 4999ft 177kts
04-Dec-20 16:03 36.643850 -121.407540 243 4999ft 172kts
04-Dec-20 16:04 36.622338 -121.460602 243 5000ft 172kts
04-Dec-20 16:05 36.600606 -121.514011 243 5000ft 172kts
04-Dec-20 16:06 36.578984 -121.567143 243 5000ft 172kts
04-Dec-20 16:07 36.566153 -121.625525 261 4385ft 178kts
04-Dec-20 16:08 36.560671 -121.686798 265 3347ft 177kts
04-Dec-20 16:09 36.560257 -121.748200 275 2160ft 178kts
04-Dec-20 16:10 36.571280 -121.797889 295 1012ft 107kts
04-Dec-20 16:11 36.580412 -121.825276 294 402ft 77kts
04-Dec-20 16:12 36.587010 -121.844481 295 166ft 29kts
04-Dec-20 16:13 36.586748 -121.846275 290 166ft 4kts
04-Dec-20 16:14 36.588340 -121.850839 291 166ft 20kts
04-Dec-20 16:15 36.588780 -121.853594 271 166ft 0kts
04-Dec-20 16:16 36.588780 -121.853594 271 166ft 0kts
04-Dec-20 16:17 36.588780 -121.853594 271 166ft 0kts

Navigation Log

Ident Type
Flight plan parsing failed, navigation log unavailable